FFT2429 KLAX-KDEN
Flight info
| Callsign | FFT2429 |
|---|---|
| Flight time | 1h 51m |
| Altitude | 37000 |
| Route | ORCKA5 LAS J146 DICEE BUMMP SSKII4 |
| Aircraft | A320/M-SDE3FGHIRWY/LB1 |
Departure
| Time | 2026-05-06 06:04 |
|---|---|
| Airport | Los Angeles International Airport (KLAX) |
Arrival
| Time | 2026-05-06 07:56 |
|---|---|
| Airport | Denver International Airport (KDEN) |
| Time | Latitude | Longitude | Altitude | Speed | Heading |
|---|---|---|---|---|---|
| 2026-05-06 05:47 | 33.94726 | -118.40191 | 126 ft | 0 kts | 82° |
| 2026-05-06 05:51 | 33.94725 | -118.40196 | 125 ft | 2 kts | 82° |
| 2026-05-06 05:51 | 33.94723 | -118.40216 | 124 ft | 2 kts | 82° |
| 2026-05-06 05:51 | 33.94721 | -118.40236 | 122 ft | 2 kts | 82° |
| 2026-05-06 05:51 | 33.94718 | -118.40257 | 121 ft | 2 kts | 82° |
| 2026-05-06 05:52 | 33.94714 | -118.40277 | 124 ft | 3 kts | 51° |
| 2026-05-06 05:52 | 33.94708 | -118.40286 | 125 ft | 0 kts | 32° |
| 2026-05-06 05:53 | 33.94711 | -118.40284 | 125 ft | 4 kts | 32° |
| 2026-05-06 05:54 | 33.94773 | -118.40265 | 123 ft | 0 kts | 351° |
| 2026-05-06 06:02 | 33.94826 | -118.40280 | 123 ft | 14 kts | 345° |
| 2026-05-06 06:03 | 33.94897 | -118.40251 | 122 ft | 12 kts | 66° |
| 2026-05-06 06:03 | 33.94917 | -118.40085 | 125 ft | 25 kts | 83° |
| 2026-05-06 06:03 | 33.94961 | -118.39924 | 120 ft | 2 kts | 26° |
| 2026-05-06 06:03 | 33.94974 | -118.39920 | 122 ft | 12 kts | 13° |
| 2026-05-06 06:04 | 33.95024 | -118.40132 | 125 ft | 61 kts | 262° |
| 2026-05-06 06:04 | 33.94942 | -118.40913 | 126 ft | 124 kts | 263° |
| 2026-05-06 06:04 | 33.94814 | -118.42144 | 137 ft | 170 kts | 262° |
| 2026-05-06 06:04 | 33.94672 | -118.43558 | 781 ft | 168 kts | 262° |
| 2026-05-06 06:05 | 33.94526 | -118.44944 | 1559 ft | 167 kts | 262° |
| 2026-05-06 06:05 | 33.94374 | -118.46347 | 2126 ft | 176 kts | 262° |
| 2026-05-06 06:05 | 33.94205 | -118.47897 | 2426 ft | 198 kts | 262° |
| 2026-05-06 06:05 | 33.94014 | -118.49630 | 2730 ft | 218 kts | 262° |
| 2026-05-06 06:06 | 33.93803 | -118.51527 | 3106 ft | 240 kts | 262° |
| 2026-05-06 06:06 | 33.93571 | -118.53605 | 3674 ft | 257 kts | 262° |
| 2026-05-06 06:06 | 33.93329 | -118.55767 | 4528 ft | 262 kts | 262° |
| 2026-05-06 06:06 | 33.93082 | -118.57959 | 5411 ft | 267 kts | 262° |
| 2026-05-06 06:07 | 33.92794 | -118.60183 | 6269 ft | 272 kts | 256° |
| 2026-05-06 06:07 | 33.91963 | -118.62243 | 7028 ft | 280 kts | 231° |
| 2026-05-06 06:07 | 33.90432 | -118.63705 | 7739 ft | 287 kts | 203° |
| 2026-05-06 06:07 | 33.88483 | -118.64193 | 8468 ft | 290 kts | 175° |
| 2026-05-06 06:08 | 33.86552 | -118.63566 | 9219 ft | 289 kts | 146° |
| 2026-05-06 06:08 | 33.85086 | -118.62003 | 9997 ft | 285 kts | 120° |
| 2026-05-06 06:08 | 33.84330 | -118.59838 | 10717 ft | 281 kts | 95° |
| 2026-05-06 06:08 | 33.84429 | -118.57513 | 11419 ft | 280 kts | 71° |
| 2026-05-06 06:09 | 33.85344 | -118.55448 | 12043 ft | 287 kts | 52° |
| 2026-05-06 06:09 | 33.86613 | -118.53472 | 12269 ft | 310 kts | 51° |
| 2026-05-06 06:09 | 33.88004 | -118.51369 | 12425 ft | 333 kts | 50° |
| 2026-05-06 06:09 | 33.89495 | -118.49130 | 12697 ft | 350 kts | 50° |
| 2026-05-06 06:10 | 33.91029 | -118.46815 | 13281 ft | 357 kts | 50° |
| 2026-05-06 06:10 | 33.92578 | -118.44460 | 13931 ft | 361 kts | 50° |
| 2026-05-06 06:10 | 33.94102 | -118.42035 | 14533 ft | 366 kts | 53° |
| 2026-05-06 06:10 | 33.95575 | -118.39509 | 15096 ft | 370 kts | 54° |
| 2026-05-06 06:11 | 33.97020 | -118.36924 | 15700 ft | 373 kts | 55° |
| 2026-05-06 06:11 | 33.98458 | -118.34307 | 16313 ft | 376 kts | 55° |
| 2026-05-06 06:11 | 33.99908 | -118.31674 | 16913 ft | 378 kts | 54° |
| 2026-05-06 06:11 | 34.01379 | -118.29032 | 17492 ft | 381 kts | 54° |
| 2026-05-06 06:12 | 34.02870 | -118.26381 | 18072 ft | 383 kts | 54° |
| 2026-05-06 06:12 | 34.04380 | -118.23713 | 18613 ft | 386 kts | 54° |
| 2026-05-06 06:12 | 34.05897 | -118.21039 | 19118 ft | 388 kts | 54° |
| 2026-05-06 06:12 | 34.07423 | -118.18347 | 19638 ft | 389 kts | 54° |
| 2026-05-06 06:13 | 34.08950 | -118.15648 | 20163 ft | 390 kts | 54° |
| 2026-05-06 06:13 | 34.10481 | -118.12942 | 20681 ft | 391 kts | 54° |
| 2026-05-06 06:13 | 34.12019 | -118.10224 | 21197 ft | 392 kts | 54° |
| 2026-05-06 06:13 | 34.13560 | -118.07498 | 21697 ft | 394 kts | 54° |
| 2026-05-06 06:14 | 34.15103 | -118.04764 | 22185 ft | 395 kts | 55° |
| 2026-05-06 06:14 | 34.16655 | -118.02015 | 22660 ft | 396 kts | 55° |
| 2026-05-06 06:14 | 34.18209 | -117.99258 | 23116 ft | 398 kts | 55° |
| 2026-05-06 06:14 | 34.19766 | -117.96489 | 23558 ft | 399 kts | 55° |
| 2026-05-06 06:15 | 34.21327 | -117.93709 | 23944 ft | 401 kts | 55° |
| 2026-05-06 06:15 | 34.22891 | -117.90919 | 24313 ft | 401 kts | 55° |
| 2026-05-06 06:15 | 34.24459 | -117.88124 | 24733 ft | 402 kts | 55° |
| 2026-05-06 06:15 | 34.26029 | -117.85326 | 25145 ft | 402 kts | 55° |
| 2026-05-06 06:16 | 34.27598 | -117.82526 | 25543 ft | 402 kts | 55° |
| 2026-05-06 06:16 | 34.29165 | -117.79725 | 25883 ft | 402 kts | 55° |
| 2026-05-06 06:16 | 34.30735 | -117.76917 | 26242 ft | 404 kts | 55° |
| 2026-05-06 06:16 | 34.32308 | -117.74099 | 26587 ft | 404 kts | 55° |
| 2026-05-06 06:17 | 34.33882 | -117.71276 | 26910 ft | 405 kts | 56° |
| 2026-05-06 06:17 | 34.35462 | -117.68450 | 27220 ft | 405 kts | 55° |
| 2026-05-06 06:17 | 34.37063 | -117.65686 | 27565 ft | 406 kts | 54° |
| 2026-05-06 06:17 | 34.38720 | -117.62917 | 27914 ft | 407 kts | 53° |
| 2026-05-06 06:18 | 34.40394 | -117.60158 | 28331 ft | 406 kts | 53° |
| 2026-05-06 06:18 | 34.42059 | -117.57418 | 28862 ft | 402 kts | 53° |
| 2026-05-06 06:18 | 34.43703 | -117.54694 | 29384 ft | 399 kts | 53° |
| 2026-05-06 06:18 | 34.45326 | -117.51986 | 29916 ft | 395 kts | 54° |
| 2026-05-06 06:19 | 34.46932 | -117.49293 | 30399 ft | 393 kts | 54° |
| 2026-05-06 06:19 | 34.48530 | -117.46611 | 30740 ft | 392 kts | 54° |
| 2026-05-06 06:19 | 34.50126 | -117.43927 | 31029 ft | 393 kts | 54° |
| 2026-05-06 06:19 | 34.51728 | -117.41229 | 31306 ft | 395 kts | 54° |
| 2026-05-06 06:20 | 34.53336 | -117.38518 | 31579 ft | 396 kts | 54° |
| 2026-05-06 06:20 | 34.54947 | -117.35805 | 31845 ft | 397 kts | 54° |
| 2026-05-06 06:20 | 34.56563 | -117.33084 | 32124 ft | 398 kts | 54° |
| 2026-05-06 06:20 | 34.58180 | -117.30355 | 32405 ft | 399 kts | 54° |
| 2026-05-06 06:21 | 34.59797 | -117.27619 | 32677 ft | 400 kts | 54° |
| 2026-05-06 06:21 | 34.61418 | -117.24875 | 32944 ft | 400 kts | 54° |
| 2026-05-06 06:21 | 34.63042 | -117.22126 | 33211 ft | 401 kts | 54° |
| 2026-05-06 06:21 | 34.64669 | -117.19370 | 33479 ft | 402 kts | 54° |
| 2026-05-06 06:22 | 34.66299 | -117.16607 | 33749 ft | 402 kts | 54° |
| 2026-05-06 06:22 | 34.67932 | -117.13838 | 34019 ft | 403 kts | 54° |
| 2026-05-06 06:22 | 34.69567 | -117.11061 | 34245 ft | 404 kts | 54° |
| 2026-05-06 06:22 | 34.71204 | -117.08285 | 34443 ft | 405 kts | 54° |
| 2026-05-06 06:23 | 34.72848 | -117.05493 | 34625 ft | 407 kts | 54° |
| 2026-05-06 06:23 | 34.74496 | -117.02690 | 34816 ft | 409 kts | 54° |
| 2026-05-06 06:23 | 34.76154 | -116.99870 | 35007 ft | 410 kts | 54° |
| 2026-05-06 06:23 | 34.77814 | -116.97040 | 35192 ft | 412 kts | 54° |
| 2026-05-06 06:24 | 34.79482 | -116.94192 | 35368 ft | 414 kts | 54° |
| 2026-05-06 06:24 | 34.81151 | -116.91337 | 35552 ft | 415 kts | 54° |
| 2026-05-06 06:24 | 34.82829 | -116.88468 | 35724 ft | 417 kts | 54° |
| 2026-05-06 06:24 | 34.84513 | -116.85587 | 35905 ft | 419 kts | 54° |
| 2026-05-06 06:25 | 34.86205 | -116.82687 | 36066 ft | 420 kts | 54° |
| 2026-05-06 06:25 | 34.87902 | -116.79780 | 36228 ft | 422 kts | 54° |
| 2026-05-06 06:25 | 34.91314 | -116.73930 | 36527 ft | 425 kts | 53° |
| 2026-05-06 06:26 | 34.93206 | -116.71162 | 36663 ft | 426 kts | 46° |
| 2026-05-06 06:26 | 34.95224 | -116.68514 | 36804 ft | 427 kts | 46° |
| 2026-05-06 06:26 | 34.97249 | -116.65859 | 36968 ft | 428 kts | 46° |
| 2026-05-06 06:27 | 35.01313 | -116.60520 | 37017 ft | 430 kts | 46° |
| 2026-05-06 06:27 | 35.05373 | -116.55170 | 36994 ft | 429 kts | 46° |
| 2026-05-06 06:28 | 35.09417 | -116.49822 | 36994 ft | 428 kts | 46° |
| 2026-05-06 06:28 | 35.12768 | -116.45387 | 36995 ft | 427 kts | 46° |
| 2026-05-06 06:29 | 35.16787 | -116.40052 | 36993 ft | 426 kts | 46° |
| 2026-05-06 06:29 | 35.20798 | -116.34719 | 36985 ft | 426 kts | 46° |
| 2026-05-06 06:30 | 35.24813 | -116.29388 | 36978 ft | 426 kts | 46° |
| 2026-05-06 06:30 | 35.28829 | -116.24059 | 36974 ft | 426 kts | 46° |
| 2026-05-06 06:31 | 35.32837 | -116.18720 | 36959 ft | 426 kts | 46° |
| 2026-05-06 06:31 | 35.36844 | -116.13370 | 36960 ft | 426 kts | 46° |
| 2026-05-06 06:32 | 35.40845 | -116.08014 | 36959 ft | 426 kts | 46° |
| 2026-05-06 06:32 | 35.44858 | -116.02648 | 36956 ft | 427 kts | 46° |
| 2026-05-06 06:33 | 35.48865 | -115.97270 | 36962 ft | 427 kts | 46° |
| 2026-05-06 06:33 | 35.52874 | -115.91877 | 36967 ft | 428 kts | 46° |
| 2026-05-06 06:34 | 35.56890 | -115.86464 | 36967 ft | 429 kts | 46° |
| 2026-05-06 06:34 | 35.60911 | -115.81043 | 36970 ft | 430 kts | 46° |
| 2026-05-06 06:35 | 35.64936 | -115.75604 | 36976 ft | 430 kts | 47° |
| 2026-05-06 06:35 | 35.68934 | -115.70115 | 36979 ft | 431 kts | 47° |
| 2026-05-06 06:36 | 35.72921 | -115.64604 | 36986 ft | 431 kts | 47° |
| 2026-05-06 06:36 | 35.76917 | -115.59095 | 36986 ft | 432 kts | 47° |
| 2026-05-06 06:37 | 35.80920 | -115.53576 | 36988 ft | 432 kts | 47° |
| 2026-05-06 06:37 | 35.84922 | -115.48044 | 36994 ft | 433 kts | 47° |
| 2026-05-06 06:38 | 35.88925 | -115.42499 | 37001 ft | 432 kts | 47° |
| 2026-05-06 06:38 | 35.92895 | -115.36986 | 37002 ft | 432 kts | 47° |
| 2026-05-06 06:39 | 35.96884 | -115.31439 | 37005 ft | 432 kts | 47° |
| 2026-05-06 06:39 | 36.00872 | -115.25892 | 37007 ft | 431 kts | 47° |
| 2026-05-06 06:40 | 36.04854 | -115.20353 | 36975 ft | 431 kts | 47° |
| 2026-05-06 06:40 | 36.08375 | -115.14376 | 36980 ft | 433 kts | 61° |
| 2026-05-06 06:41 | 36.10623 | -115.07433 | 36973 ft | 435 kts | 66° |
| 2026-05-06 06:41 | 36.12777 | -115.00440 | 36914 ft | 435 kts | 66° |
| 2026-05-06 06:42 | 36.14932 | -114.93450 | 36907 ft | 435 kts | 66° |
| 2026-05-06 06:42 | 36.17077 | -114.86447 | 36895 ft | 436 kts | 66° |
| 2026-05-06 06:43 | 36.19227 | -114.79421 | 36882 ft | 436 kts | 66° |
| 2026-05-06 06:43 | 36.21381 | -114.72386 | 36865 ft | 437 kts | 66° |
| 2026-05-06 06:44 | 36.23531 | -114.65344 | 36846 ft | 438 kts | 66° |
| 2026-05-06 06:44 | 36.25689 | -114.58288 | 36833 ft | 438 kts | 66° |
| 2026-05-06 06:45 | 36.27845 | -114.51204 | 36840 ft | 439 kts | 66° |
| 2026-05-06 06:45 | 36.29999 | -114.44113 | 36838 ft | 440 kts | 66° |
| 2026-05-06 06:46 | 36.32144 | -114.37017 | 36839 ft | 440 kts | 67° |
| 2026-05-06 06:46 | 36.34292 | -114.29898 | 36839 ft | 441 kts | 67° |
| 2026-05-06 06:47 | 36.36440 | -114.22773 | 36846 ft | 441 kts | 67° |
| 2026-05-06 06:47 | 36.38584 | -114.15632 | 36847 ft | 442 kts | 67° |
| 2026-05-06 06:48 | 36.40728 | -114.08470 | 36854 ft | 442 kts | 67° |
| 2026-05-06 06:48 | 36.42874 | -114.01297 | 36864 ft | 443 kts | 67° |
| 2026-05-06 06:49 | 36.45010 | -113.94114 | 36866 ft | 444 kts | 67° |
| 2026-05-06 06:49 | 36.46080 | -113.90514 | 37024 ft | 445 kts | 68° |
| 2026-05-06 06:49 | 36.47152 | -113.86896 | 37187 ft | 447 kts | 68° |
| 2026-05-06 06:49 | 36.48226 | -113.83270 | 37324 ft | 448 kts | 68° |
| 2026-05-06 06:50 | 36.49307 | -113.79627 | 37464 ft | 450 kts | 68° |
| 2026-05-06 06:50 | 36.50392 | -113.75969 | 37607 ft | 451 kts | 68° |
| 2026-05-06 06:50 | 36.51479 | -113.72300 | 37744 ft | 453 kts | 68° |
| 2026-05-06 06:50 | 36.52566 | -113.68620 | 37881 ft | 454 kts | 68° |
| 2026-05-06 06:51 | 36.53657 | -113.64925 | 38021 ft | 456 kts | 68° |
| 2026-05-06 06:51 | 36.54746 | -113.61220 | 38163 ft | 457 kts | 69° |
| 2026-05-06 06:51 | 36.55835 | -113.57504 | 38304 ft | 458 kts | 69° |
| 2026-05-06 06:51 | 36.56929 | -113.53773 | 38446 ft | 459 kts | 69° |
| 2026-05-06 06:52 | 36.58022 | -113.50045 | 38582 ft | 460 kts | 69° |
| 2026-05-06 06:52 | 36.59122 | -113.46295 | 38696 ft | 461 kts | 69° |
| 2026-05-06 06:52 | 36.60217 | -113.42552 | 38839 ft | 461 kts | 69° |
| 2026-05-06 06:53 | 36.62412 | -113.35019 | 38920 ft | 465 kts | 69° |
| 2026-05-06 06:53 | 36.64623 | -113.27423 | 38923 ft | 467 kts | 69° |
| 2026-05-06 06:54 | 36.66833 | -113.19807 | 38948 ft | 467 kts | 69° |
| 2026-05-06 06:54 | 36.69036 | -113.12188 | 38964 ft | 467 kts | 69° |
| 2026-05-06 06:55 | 36.71229 | -113.04557 | 38982 ft | 467 kts | 69° |
| 2026-05-06 06:55 | 36.73424 | -112.96925 | 39000 ft | 468 kts | 69° |
| 2026-05-06 06:56 | 36.75599 | -112.89338 | 39002 ft | 468 kts | 69° |
| 2026-05-06 06:56 | 36.77795 | -112.81647 | 38992 ft | 468 kts | 69° |
| 2026-05-06 06:57 | 36.79072 | -112.77175 | 38988 ft | 468 kts | 69° |
| 2026-05-06 06:57 | 36.81192 | -112.69717 | 38972 ft | 468 kts | 69° |
| 2026-05-06 06:58 | 36.82859 | -112.63840 | 38961 ft | 468 kts | 69° |
| 2026-05-06 06:58 | 36.85022 | -112.56190 | 38949 ft | 468 kts | 69° |
| 2026-05-06 06:59 | 36.87185 | -112.48525 | 38946 ft | 467 kts | 69° |
| 2026-05-06 06:59 | 36.89345 | -112.40859 | 38938 ft | 468 kts | 69° |
| 2026-05-06 07:00 | 36.91497 | -112.33182 | 38929 ft | 469 kts | 69° |
| 2026-05-06 07:00 | 36.93656 | -112.25480 | 38916 ft | 470 kts | 69° |
| 2026-05-06 07:01 | 36.95812 | -112.17755 | 38904 ft | 471 kts | 69° |
| 2026-05-06 07:01 | 36.97965 | -112.10020 | 38888 ft | 471 kts | 69° |
| 2026-05-06 07:02 | 37.00120 | -112.02265 | 38874 ft | 472 kts | 69° |
| 2026-05-06 07:02 | 37.02274 | -111.94490 | 38863 ft | 473 kts | 69° |
| 2026-05-06 07:03 | 37.04422 | -111.86694 | 38849 ft | 475 kts | 69° |
| 2026-05-06 07:03 | 37.06577 | -111.78866 | 38866 ft | 476 kts | 69° |
| 2026-05-06 07:04 | 37.08732 | -111.71016 | 38876 ft | 477 kts | 70° |
| 2026-05-06 07:04 | 37.10886 | -111.63137 | 38888 ft | 478 kts | 70° |
| 2026-05-06 07:05 | 37.13038 | -111.55251 | 38901 ft | 478 kts | 70° |
| 2026-05-06 07:05 | 37.15186 | -111.47358 | 38903 ft | 478 kts | 70° |
| 2026-05-06 07:06 | 37.17324 | -111.39464 | 38888 ft | 478 kts | 70° |
| 2026-05-06 07:06 | 37.19460 | -111.31585 | 38868 ft | 477 kts | 70° |
| 2026-05-06 07:07 | 37.21594 | -111.23704 | 38834 ft | 477 kts | 69° |
| 2026-05-06 07:07 | 37.24415 | -111.16198 | 38815 ft | 476 kts | 62° |
| 2026-05-06 07:08 | 37.27376 | -111.08768 | 38805 ft | 476 kts | 62° |
| 2026-05-06 07:08 | 37.30337 | -111.01323 | 38804 ft | 477 kts | 62° |
| 2026-05-06 07:09 | 37.32792 | -110.95129 | 38803 ft | 477 kts | 62° |
| 2026-05-06 07:09 | 37.36232 | -110.86445 | 38799 ft | 477 kts | 62° |
| 2026-05-06 07:10 | 37.39188 | -110.78967 | 38795 ft | 478 kts | 63° |
| 2026-05-06 07:10 | 37.41657 | -110.72691 | 38792 ft | 478 kts | 62° |
| 2026-05-06 07:11 | 37.44598 | -110.65175 | 38790 ft | 479 kts | 62° |
| 2026-05-06 07:11 | 37.47542 | -110.57661 | 38791 ft | 479 kts | 62° |
| 2026-05-06 07:12 | 37.50491 | -110.50135 | 38796 ft | 479 kts | 62° |
| 2026-05-06 07:12 | 37.53440 | -110.42593 | 38796 ft | 480 kts | 62° |
| 2026-05-06 07:13 | 37.56381 | -110.35043 | 38803 ft | 480 kts | 63° |
| 2026-05-06 07:13 | 37.59319 | -110.27479 | 38807 ft | 480 kts | 63° |
| 2026-05-06 07:14 | 37.62250 | -110.19903 | 38811 ft | 481 kts | 63° |
| 2026-05-06 07:14 | 37.65179 | -110.12316 | 38817 ft | 481 kts | 63° |
| 2026-05-06 07:15 | 37.68109 | -110.04709 | 38824 ft | 483 kts | 63° |
| 2026-05-06 07:15 | 37.71047 | -109.97082 | 38827 ft | 483 kts | 63° |
| 2026-05-06 07:16 | 37.73982 | -109.89432 | 38829 ft | 484 kts | 63° |
| 2026-05-06 07:16 | 37.76913 | -109.81765 | 38858 ft | 485 kts | 63° |
| 2026-05-06 07:17 | 37.79841 | -109.74090 | 38876 ft | 485 kts | 63° |
| 2026-05-06 07:17 | 37.82766 | -109.66405 | 38887 ft | 485 kts | 63° |
| 2026-05-06 07:18 | 37.85675 | -109.58765 | 38877 ft | 485 kts | 63° |
| 2026-05-06 07:18 | 37.88614 | -109.51000 | 38870 ft | 486 kts | 63° |
| 2026-05-06 07:19 | 37.91513 | -109.43327 | 38847 ft | 486 kts | 63° |
| 2026-05-06 07:19 | 37.94435 | -109.35591 | 38831 ft | 487 kts | 63° |
| 2026-05-06 07:20 | 37.97279 | -109.28031 | 38832 ft | 488 kts | 63° |
| 2026-05-06 07:20 | 38.00189 | -109.20263 | 38835 ft | 488 kts | 63° |
| 2026-05-06 07:21 | 38.03094 | -109.12481 | 38836 ft | 489 kts | 64° |
| 2026-05-06 07:21 | 38.05998 | -109.04672 | 38835 ft | 489 kts | 64° |
| 2026-05-06 07:22 | 38.08911 | -108.96865 | 38835 ft | 490 kts | 64° |
| 2026-05-06 07:22 | 38.11847 | -108.89060 | 38829 ft | 490 kts | 63° |
| 2026-05-06 07:23 | 38.14904 | -108.81330 | 38827 ft | 490 kts | 62° |
| 2026-05-06 07:23 | 38.17995 | -108.73601 | 38829 ft | 491 kts | 62° |
| 2026-05-06 07:24 | 38.21063 | -108.65826 | 38829 ft | 491 kts | 62° |
| 2026-05-06 07:24 | 38.24092 | -108.58031 | 38833 ft | 492 kts | 63° |
| 2026-05-06 07:25 | 38.27127 | -108.50218 | 38837 ft | 493 kts | 62° |
| 2026-05-06 07:25 | 38.30169 | -108.42406 | 38835 ft | 493 kts | 62° |
| 2026-05-06 07:26 | 38.33212 | -108.34569 | 38837 ft | 493 kts | 62° |
| 2026-05-06 07:26 | 38.36244 | -108.26720 | 38848 ft | 494 kts | 63° |
| 2026-05-06 07:27 | 38.39269 | -108.18859 | 38885 ft | 494 kts | 63° |
| 2026-05-06 07:27 | 38.42294 | -108.10985 | 38919 ft | 495 kts | 63° |
| 2026-05-06 07:28 | 38.45323 | -108.03093 | 38959 ft | 495 kts | 63° |
| 2026-05-06 07:28 | 38.49848 | -107.91215 | 38977 ft | 496 kts | 63° |
| 2026-05-06 07:29 | 38.52837 | -107.83267 | 38968 ft | 497 kts | 63° |
| 2026-05-06 07:29 | 38.55823 | -107.75301 | 38953 ft | 497 kts | 63° |
| 2026-05-06 07:30 | 38.58795 | -107.67377 | 38915 ft | 498 kts | 63° |
| 2026-05-06 07:30 | 38.61788 | -107.59391 | 38875 ft | 498 kts | 63° |
| 2026-05-06 07:31 | 38.64782 | -107.51385 | 38837 ft | 500 kts | 63° |
| 2026-05-06 07:31 | 38.67788 | -107.43358 | 38828 ft | 500 kts | 63° |
| 2026-05-06 07:32 | 38.70829 | -107.35347 | 38818 ft | 501 kts | 63° |
| 2026-05-06 07:32 | 38.73875 | -107.27321 | 38831 ft | 501 kts | 63° |
| 2026-05-06 07:33 | 38.76917 | -107.19268 | 38849 ft | 502 kts | 63° |
| 2026-05-06 07:33 | 38.79945 | -107.11199 | 38852 ft | 503 kts | 63° |
| 2026-05-06 07:34 | 38.82971 | -107.03106 | 38849 ft | 504 kts | 63° |
| 2026-05-06 07:34 | 38.85993 | -106.94996 | 38827 ft | 504 kts | 63° |
| 2026-05-06 07:35 | 38.89021 | -106.86863 | 38815 ft | 505 kts | 63° |
| 2026-05-06 07:35 | 38.92051 | -106.78714 | 38825 ft | 506 kts | 63° |
| 2026-05-06 07:36 | 38.95069 | -106.70554 | 38826 ft | 506 kts | 63° |
| 2026-05-06 07:36 | 38.98093 | -106.62379 | 38810 ft | 507 kts | 63° |
| 2026-05-06 07:37 | 39.01138 | -106.54139 | 37810 ft | 518 kts | 63° |
| 2026-05-06 07:37 | 39.02663 | -106.49988 | 37088 ft | 509 kts | 64° |
| 2026-05-06 07:37 | 39.04156 | -106.45897 | 36196 ft | 503 kts | 64° |
| 2026-05-06 07:38 | 39.05633 | -106.41837 | 35416 ft | 498 kts | 63° |
| 2026-05-06 07:38 | 39.07095 | -106.37811 | 34586 ft | 495 kts | 64° |
| 2026-05-06 07:38 | 39.08548 | -106.33813 | 33729 ft | 492 kts | 63° |
| 2026-05-06 07:38 | 39.09994 | -106.29833 | 32705 ft | 492 kts | 63° |
| 2026-05-06 07:39 | 39.11451 | -106.25824 | 31713 ft | 497 kts | 63° |
| 2026-05-06 07:39 | 39.12925 | -106.21773 | 30793 ft | 499 kts | 62° |
| 2026-05-06 07:39 | 39.14379 | -106.17757 | 30384 ft | 490 kts | 62° |
| 2026-05-06 07:39 | 39.15804 | -106.13814 | 29806 ft | 483 kts | 62° |
| 2026-05-06 07:40 | 39.17211 | -106.09915 | 29103 ft | 478 kts | 62° |
| 2026-05-06 07:40 | 39.18601 | -106.06048 | 28399 ft | 473 kts | 62° |
| 2026-05-06 07:40 | 39.19978 | -106.02214 | 27717 ft | 469 kts | 63° |
| 2026-05-06 07:40 | 39.21333 | -105.98425 | 26714 ft | 461 kts | 63° |
| 2026-05-06 07:41 | 39.22666 | -105.94694 | 25654 ft | 455 kts | 63° |
| 2026-05-06 07:41 | 39.23985 | -105.91009 | 24736 ft | 451 kts | 63° |
| 2026-05-06 07:41 | 39.25303 | -105.87338 | 23676 ft | 450 kts | 63° |
| 2026-05-06 07:41 | 39.26616 | -105.83691 | 22550 ft | 446 kts | 63° |
| 2026-05-06 07:42 | 39.27905 | -105.80111 | 22092 ft | 437 kts | 63° |
| 2026-05-06 07:42 | 39.29188 | -105.76557 | 21841 ft | 435 kts | 63° |
| 2026-05-06 07:42 | 39.30465 | -105.73011 | 21598 ft | 435 kts | 63° |
| 2026-05-06 07:42 | 39.31730 | -105.69484 | 21342 ft | 432 kts | 63° |
| 2026-05-06 07:43 | 39.32989 | -105.65970 | 21119 ft | 430 kts | 63° |
| 2026-05-06 07:43 | 39.34252 | -105.62481 | 20872 ft | 428 kts | 63° |
| 2026-05-06 07:43 | 39.35519 | -105.59013 | 20630 ft | 426 kts | 62° |
| 2026-05-06 07:43 | 39.36786 | -105.55562 | 20308 ft | 424 kts | 62° |
| 2026-05-06 07:44 | 39.38040 | -105.52138 | 19831 ft | 420 kts | 62° |
| 2026-05-06 07:44 | 39.39282 | -105.48736 | 19376 ft | 416 kts | 62° |
| 2026-05-06 07:44 | 39.40507 | -105.45371 | 19171 ft | 412 kts | 63° |
| 2026-05-06 07:44 | 39.41431 | -105.41855 | 19033 ft | 415 kts | 77° |
| 2026-05-06 07:45 | 39.41745 | -105.38140 | 18488 ft | 418 kts | 89° |
| 2026-05-06 07:45 | 39.41757 | -105.34408 | 18080 ft | 411 kts | 89° |
| 2026-05-06 07:45 | 39.41763 | -105.30740 | 17641 ft | 405 kts | 89° |
| 2026-05-06 07:45 | 39.41771 | -105.27138 | 16908 ft | 397 kts | 89° |
| 2026-05-06 07:46 | 39.41783 | -105.23591 | 16228 ft | 393 kts | 89° |
| 2026-05-06 07:46 | 39.41799 | -105.20071 | 15736 ft | 390 kts | 89° |
| 2026-05-06 07:46 | 39.41817 | -105.16574 | 15231 ft | 386 kts | 89° |
| 2026-05-06 07:46 | 39.41837 | -105.13163 | 14743 ft | 383 kts | 90° |
| 2026-05-06 07:47 | 39.41855 | -105.09731 | 14254 ft | 382 kts | 90° |
| 2026-05-06 07:47 | 39.41870 | -105.06305 | 13730 ft | 380 kts | 90° |
| 2026-05-06 07:47 | 39.41880 | -105.02915 | 13393 ft | 373 kts | 90° |
| 2026-05-06 07:47 | 39.41886 | -104.99576 | 13242 ft | 370 kts | 90° |
| 2026-05-06 07:48 | 39.41891 | -104.96256 | 13078 ft | 368 kts | 90° |
| 2026-05-06 07:48 | 39.42001 | -104.92956 | 12862 ft | 367 kts | 85° |
| 2026-05-06 07:48 | 39.42246 | -104.89686 | 12458 ft | 363 kts | 84° |
| 2026-05-06 07:48 | 39.42531 | -104.86460 | 12103 ft | 358 kts | 83° |
| 2026-05-06 07:49 | 39.42833 | -104.83282 | 11760 ft | 355 kts | 83° |
| 2026-05-06 07:49 | 39.43134 | -104.80135 | 11412 ft | 351 kts | 83° |
| 2026-05-06 07:49 | 39.43451 | -104.76973 | 11071 ft | 348 kts | 79° |
| 2026-05-06 07:49 | 39.44209 | -104.74025 | 10975 ft | 346 kts | 67° |
| 2026-05-06 07:50 | 39.45196 | -104.71230 | 10992 ft | 346 kts | 57° |
| 2026-05-06 07:50 | 39.46865 | -104.69032 | 10988 ft | 345 kts | 31° |
| 2026-05-06 07:50 | 39.49089 | -104.67967 | 10991 ft | 343 kts | 9° |
| 2026-05-06 07:50 | 39.51438 | -104.67410 | 10993 ft | 344 kts | 12° |
| 2026-05-06 07:51 | 39.53764 | -104.66711 | 10990 ft | 344 kts | 11° |
| 2026-05-06 07:51 | 39.56130 | -104.66266 | 10509 ft | 340 kts | 2° |
| 2026-05-06 07:51 | 39.58436 | -104.66283 | 10047 ft | 323 kts | 358° |
| 2026-05-06 07:51 | 39.60628 | -104.66330 | 9615 ft | 307 kts | 0° |
| 2026-05-06 07:52 | 39.62710 | -104.66306 | 9226 ft | 292 kts | 1° |
| 2026-05-06 07:52 | 39.64695 | -104.66272 | 8856 ft | 278 kts | 1° |
| 2026-05-06 07:52 | 39.66578 | -104.66249 | 8647 ft | 260 kts | 1° |
| 2026-05-06 07:52 | 39.68328 | -104.66229 | 8430 ft | 245 kts | 1° |
| 2026-05-06 07:53 | 39.69465 | -104.66216 | 8223 ft | 239 kts | 1° |
| 2026-05-06 07:53 | 39.71621 | -104.66190 | 7806 ft | 228 kts | 2° |
| 2026-05-06 07:53 | 39.72669 | -104.66178 | 7600 ft | 217 kts | 2° |
| 2026-05-06 07:53 | 39.74120 | -104.66161 | 7336 ft | 199 kts | 2° |
| 2026-05-06 07:54 | 39.75448 | -104.66145 | 7070 ft | 185 kts | 3° |
| 2026-05-06 07:54 | 39.76683 | -104.66131 | 6861 ft | 171 kts | 3° |
| 2026-05-06 07:54 | 39.77839 | -104.66116 | 6633 ft | 161 kts | 3° |
| 2026-05-06 07:54 | 39.78928 | -104.66103 | 6383 ft | 152 kts | 3° |
| 2026-05-06 07:55 | 39.80301 | -104.66086 | 6039 ft | 147 kts | 1° |
| 2026-05-06 07:55 | 39.80984 | -104.66078 | 5884 ft | 145 kts | 1° |
| 2026-05-06 07:55 | 39.81989 | -104.66065 | 5666 ft | 143 kts | 0° |
| 2026-05-06 07:55 | 39.82977 | -104.66060 | 5457 ft | 142 kts | 0° |
| 2026-05-06 07:56 | 39.83774 | -104.66048 | 5412 ft | 76 kts | 0° |
| 2026-05-06 07:56 | 39.84124 | -104.66051 | 5417 ft | 28 kts | 344° |
| 2026-05-06 07:56 | 39.84155 | -104.66118 | 5409 ft | 2 kts | 230° |
| 2026-05-06 07:56 | 39.84038 | -104.66186 | 5410 ft | 26 kts | 210° |
| 2026-05-06 07:57 | 39.84043 | -104.66274 | 5408 ft | 7 kts | 8° |
| 2026-05-06 07:57 | 39.84104 | -104.66263 | 5421 ft | 12 kts | 8° |
| 2026-05-06 07:57 | 39.84261 | -104.66254 | 5413 ft | 26 kts | 359° |
| 2026-05-06 07:57 | 39.84446 | -104.66252 | 5411 ft | 27 kts | 0° |
| 2026-05-06 07:58 | 39.84635 | -104.66251 | 5406 ft | 27 kts | 360° |
| 2026-05-06 07:58 | 39.84829 | -104.66248 | 5400 ft | 29 kts | 1° |
| 2026-05-06 07:58 | 39.85029 | -104.66246 | 5397 ft | 29 kts | 359° |
| 2026-05-06 07:58 | 39.85229 | -104.66243 | 5398 ft | 29 kts | 4° |
| 2026-05-06 07:59 | 39.85426 | -104.66237 | 5399 ft | 28 kts | 358° |
| 2026-05-06 07:59 | 39.85616 | -104.66236 | 5395 ft | 27 kts | 3° |
| 2026-05-06 07:59 | 39.85804 | -104.66228 | 5393 ft | 27 kts | 2° |
| 2026-05-06 07:59 | 39.85989 | -104.66229 | 5388 ft | 27 kts | 1° |
| 2026-05-06 08:00 | 39.86178 | -104.66231 | 5386 ft | 27 kts | 358° |
| 2026-05-06 08:00 | 39.86363 | -104.66232 | 5382 ft | 27 kts | 1° |
| 2026-05-06 08:00 | 39.86502 | -104.66292 | 5386 ft | 18 kts | 277° |
| 2026-05-06 08:00 | 39.86503 | -104.66461 | 5387 ft | 26 kts | 269° |
| 2026-05-06 08:01 | 39.86468 | -104.66733 | 5387 ft | 30 kts | 273° |
| 2026-05-06 08:01 | 39.86473 | -104.67001 | 5387 ft | 29 kts | 270° |
| 2026-05-06 08:01 | 39.86477 | -104.67264 | 5387 ft | 29 kts | 272° |
| 2026-05-06 08:01 | 39.86415 | -104.67458 | 5387 ft | 20 kts | 185° |
| 2026-05-06 08:02 | 39.86353 | -104.67477 | 5386 ft | 0 kts | 195° |